Time;durP1;ratioP1;P1;durP2;ratioP2;P2;SDS_P1;SDS_P2;PMS_P1;PMS_P2;Temp;Humidity;BMP_temperature;BMP_pressure;BME280_temperature;BME280_humidity;BME280_pressure;Samples;Min_cycle;Max_cycle;Signal;HPM_P1;HPM_P2
2021/08/02 00:00:16;;;;;;;23.27;5.72;;;20.20;99.90;;;;;;5029765;28;20036;-56
2021/08/02 00:03:29;;;;;;;24.27;6.60;;;20.20;99.90;;;;;;5030218;28;20040;-55
2021/08/02 00:06:59;;;;;;;27.27;5.93;;;20.20;99.90;;;;;;5030202;28;20411;-57
2021/08/02 00:10:12;;;;;;;27.00;6.28;;;20.20;99.90;;;;;;5029788;28;20044;-56
2021/08/02 00:13:28;;;;;;;24.00;6.60;;;20.30;99.90;;;;;;5030204;28;20048;-53
2021/08/02 00:16:35;;;;;;;24.45;5.15;;;20.30;99.90;;;;;;5030005;28;20049;-56
2021/08/02 00:19:39;;;;;;;33.75;6.40;;;20.30;99.90;;;;;;5028989;28;20557;-56
2021/08/02 00:22:45;;;;;;;24.13;5.30;;;20.30;99.90;;;;;;5030224;28;20056;-57
2021/08/02 00:25:49;;;;;;;20.45;5.82;;;20.30;99.90;;;;;;5030040;28;20056;-55
2021/08/02 00:28:55;;;;;;;23.08;5.13;;;20.20;99.90;;;;;;5020809;28;20048;-54
2021/08/02 00:32:01;;;;;;;23.23;5.70;;;20.10;99.90;;;;;;5028546;28;20044;-57
2021/08/02 00:35:05;;;;;;;29.15;6.03;;;20.00;99.90;;;;;;5029565;28;20045;-54
2021/08/02 00:38:20;;;;;;;26.15;5.78;;;20.00;99.90;;;;;;5029415;28;20044;-56
2021/08/02 00:41:48;;;;;;;31.45;5.72;;;20.00;99.90;;;;;;5029725;28;20507;-53
2021/08/02 00:45:05;;;;;;;20.02;5.22;;;20.00;99.90;;;;;;5028709;28;20048;-57
2021/08/02 00:48:12;;;;;;;16.77;4.43;;;20.00;99.90;;;;;;5008869;28;20041;-55
2021/08/02 00:51:19;;;;;;;22.35;5.97;;;20.00;99.90;;;;;;5009769;28;20060;-54
2021/08/02 00:54:26;;;;;;;19.58;5.32;;;19.90;99.90;;;;;;5031779;28;20039;-57
2021/08/02 00:57:34;;;;;;;17.52;5.70;;;19.90;99.90;;;;;;5031752;28;20056;-57
2021/08/02 01:00:40;;;;;;;25.08;5.30;;;19.90;99.90;;;;;;5031591;28;20044;-56
2021/08/02 01:03:45;;;;;;;19.80;5.18;;;19.80;99.90;;;;;;5017013;28;20052;-57
2021/08/02 01:06:53;;;;;;;24.83;5.82;;;19.80;99.90;;;;;;5029462;28;20052;-54
2021/08/02 01:10:00;;;;;;;20.88;5.57;;;19.70;99.90;;;;;;5028763;28;20104;-53
2021/08/02 01:13:07;;;;;;;17.58;4.75;;;19.50;99.90;;;;;;5028801;28;20044;-58
2021/08/02 01:16:15;;;;;;;16.25;5.05;;;19.40;99.90;;;;;;5029490;28;20522;-55
2021/08/02 01:19:21;;;;;;;20.42;5.72;;;19.40;99.90;;;;;;5028869;28;20048;-53
2021/08/02 01:22:35;;;;;;;18.08;4.88;;;19.40;99.90;;;;;;5030286;23;20052;31
2021/08/02 01:25:42;;;;;;;18.65;5.68;;;19.40;99.90;;;;;;4989932;28;20049;-64
2021/08/02 01:29:25;;;;;;;24.33;5.57;;;19.50;99.90;;;;;;4988417;28;20503;-63
2021/08/02 01:32:32;;;;;;;21.90;5.10;;;19.40;99.90;;;;;;4989761;28;20061;-63
2021/08/02 01:35:43;;;;;;;20.23;5.10;;;19.40;99.90;;;;;;5002078;28;20053;-64
2021/08/02 01:38:52;;;;;;;30.17;6.00;;;19.40;99.90;;;;;;4996329;28;20049;-63
2021/08/02 01:42:00;;;;;;;21.00;5.25;;;19.40;99.90;;;;;;5005561;28;20058;-64
2021/08/02 01:45:06;;;;;;;17.63;4.40;;;19.50;99.90;;;;;;4994679;28;20054;-63
2021/08/02 01:48:18;;;;;;;23.13;4.47;;;19.50;99.90;;;;;;4974640;28;20054;-64
2021/08/02 01:51:45;;;;;;;14.85;4.13;;;19.50;99.90;;;;;;4974978;28;20053;-64
2021/08/02 01:54:52;;;;;;;21.45;4.68;;;19.50;99.90;;;;;;4975165;28;20045;-63
2021/08/02 01:58:07;;;;;;;20.83;4.80;;;19.50;99.90;;;;;;4979914;28;20061;-64
2021/08/02 02:01:28;;;;;;;18.42;4.25;;;19.50;99.90;;;;;;4990970;28;20053;-63
2021/08/02 02:04:47;;;;;;;20.92;4.60;;;19.40;99.90;;;;;;4993497;28;20065;-63
2021/08/02 02:08:17;;;;;;;25.48;4.75;;;19.30;99.90;;;;;;4993571;28;20045;-64
2021/08/02 02:11:25;;;;;;;;;;;19.30;99.90;;;;;;4993313;28;20045;-63
2021/08/02 02:14:38;;;;;;;31.50;4.80;;;19.30;99.90;;;;;;5004578;28;20267;-63
2021/08/02 02:17:45;;;;;;;17.85;4.38;;;19.20;99.90;;;;;;4992679;28;20037;-65
2021/08/02 02:20:52;;;;;;;14.38;3.90;;;19.30;99.90;;;;;;4993941;28;20061;-64
2021/08/02 02:24:00;;;;;;;20.42;4.43;;;19.30;99.90;;;;;;4993933;28;20432;-64
2021/08/02 02:27:06;;;;;;;16.27;4.25;;;19.20;99.90;;;;;;4992990;28;20045;-64
2021/08/02 02:30:14;;;;;;;18.25;4.03;;;19.20;99.90;;;;;;4992753;28;20053;-65
2021/08/02 02:33:20;;;;;;;20.02;5.95;;;19.20;99.90;;;;;;4993920;28;20061;-64
2021/08/02 02:36:26;;;;;;;16.05;3.88;;;19.20;99.90;;;;;;4993854;28;20373;-64
2021/08/02 02:39:31;;;;;;;16.63;3.40;;;19.20;99.90;;;;;;4973716;28;20037;-63
2021/08/02 02:42:36;;;;;;;15.75;3.97;;;19.20;99.90;;;;;;4973336;28;20045;-64
2021/08/02 02:45:47;;;;;;;14.93;3.70;;;19.30;99.90;;;;;;4974225;28;20393;-63
2021/08/02 02:48:54;;;;;;;16.33;4.03;;;19.30;99.90;;;;;;4983851;28;20065;-64
2021/08/02 02:51:59;;;;;;;20.77;4.20;;;19.20;99.90;;;;;;4983605;28;20397;-64
2021/08/02 02:55:06;;;;;;;21.98;4.65;;;19.30;99.90;;;;;;4984357;28;20054;-63
2021/08/02 02:58:12;;;;;;;27.17;4.55;;;19.20;99.90;;;;;;4983843;28;20166;-63
2021/08/02 03:01:20;;;;;;;22.27;4.18;;;19.00;99.90;;;;;;4983662;28;20038;-63
2021/08/02 03:04:31;;;;;;;17.58;3.90;;;19.00;99.90;;;;;;4974089;28;20053;-63
2021/08/02 03:07:38;;;;;;;20.52;4.05;;;19.00;99.90;;;;;;4972938;28;20049;-63
2021/08/02 03:10:43;;;;;;;14.10;3.63;;;18.90;99.90;;;;;;4983702;28;20050;-64
2021/08/02 03:13:52;;;;;;;25.27;5.05;;;18.90;99.90;;;;;;4972913;28;20046;-64
2021/08/02 03:16:57;;;;;;;18.00;3.80;;;18.90;99.90;;;;;;4973691;28;20050;-65
2021/08/02 03:20:03;;;;;;;22.08;4.50;;;18.90;99.90;;;;;;4973108;28;20054;-65
2021/08/02 03:23:12;;;;;;;16.90;4.85;;;18.90;99.90;;;;;;4973702;28;20054;-64
2021/08/02 03:26:21;;;;;;;16.38;3.40;;;18.90;99.90;;;;;;4973555;28;20061;-63
2021/08/02 03:29:42;;;;;;;16.60;3.92;;;18.80;99.90;;;;;;4972797;28;20378;-63
2021/08/02 03:32:49;;;;;;;12.35;3.13;;;18.80;99.90;;;;;;4973190;28;20038;-64
2021/08/02 03:35:56;;;;;;;10.38;3.58;;;18.80;99.90;;;;;;4973458;28;20046;-63
2021/08/02 03:39:00;;;;;;;15.68;3.63;;;18.70;99.90;;;;;;4990951;28;20045;-64
2021/08/02 03:42:05;;;;;;;14.38;3.35;;;18.70;99.90;;;;;;4992417;28;20046;-64
2021/08/02 03:45:12;;;;;;;15.80;4.82;;;18.70;99.90;;;;;;4992959;28;20069;-64
2021/08/02 03:48:20;;;;;;;21.85;4.07;;;18.60;99.90;;;;;;5002508;28;20049;-65
2021/08/02 03:51:24;;;;;;;14.13;4.18;;;18.70;99.90;;;;;;4992400;28;20053;-64
2021/08/02 03:54:30;;;;;;;18.25;3.67;;;18.60;99.90;;;;;;4993236;28;20045;-64
2021/08/02 03:57:35;;;;;;;14.52;4.20;;;18.60;99.90;;;;;;4992711;28;20504;-64
2021/08/02 04:00:39;;;;;;;38.75;4.78;;;18.60;99.90;;;;;;4992768;28;20048;-64
2021/08/02 04:03:43;;;;;;;10.25;3.28;;;18.60;99.90;;;;;;4992114;28;20053;-64
2021/08/02 04:06:47;;;;;;;14.02;3.80;;;18.60;99.90;;;;;;4992571;28;20156;-63
2021/08/02 04:09:52;;;;;;;14.00;3.40;;;18.60;99.90;;;;;;4991052;28;20045;-64
2021/08/02 04:12:57;;;;;;;17.83;3.78;;;18.50;99.90;;;;;;4992401;28;20041;-63
2021/08/02 04:16:01;;;;;;;25.27;5.18;;;18.50;99.90;;;;;;4992470;28;20053;-63
2021/08/02 04:19:06;;;;;;;18.85;4.90;;;18.20;99.90;;;;;;4991892;28;20053;-63
2021/08/02 04:22:10;;;;;;;14.02;4.00;;;17.90;99.90;;;;;;4990615;28;20049;-63
2021/08/02 04:25:15;;;;;;;19.10;4.70;;;17.90;99.90;;;;;;4992132;28;20053;-63
2021/08/02 04:28:19;;;;;;;18.83;4.57;;;17.80;99.90;;;;;;4991533;28;20058;-64
2021/08/02 04:31:29;;;;;;;20.17;4.88;;;17.90;99.90;;;;;;4990113;28;20053;-64
2021/08/02 04:34:34;;;;;;;16.20;3.80;;;17.90;99.90;;;;;;4992307;28;20049;-63
2021/08/02 04:37:40;;;;;;;21.85;4.28;;;17.90;99.90;;;;;;4992195;28;20045;-64
2021/08/02 04:40:44;;;;;;;16.98;4.90;;;17.90;99.90;;;;;;4991545;28;20507;-64
2021/08/02 04:43:49;;;;;;;19.52;4.22;;;18.00;99.90;;;;;;4991430;28;20057;-64
2021/08/02 04:46:54;;;;;;;18.05;4.13;;;18.00;99.90;;;;;;4991861;28;20065;-64
2021/08/02 04:49:58;;;;;;;18.15;5.00;;;18.00;99.90;;;;;;4990842;28;20045;-64
2021/08/02 04:53:03;;;;;;;19.33;5.95;;;18.10;99.90;;;;;;4990849;28;20053;-64
2021/08/02 04:56:08;;;;;;;17.77;5.20;;;18.10;99.90;;;;;;4990854;28;20045;-64
2021/08/02 04:59:12;;;;;;;17.52;5.30;;;18.20;99.90;;;;;;4990715;28;20046;-64
2021/08/02 05:02:16;;;;;;;18.55;4.68;;;18.30;99.90;;;;;;4990906;28;20069;-63
2021/08/02 05:05:20;;;;;;;20.50;4.75;;;18.40;99.90;;;;;;4991393;28;20041;-64
2021/08/02 05:08:24;;;;;;;21.50;4.22;;;18.60;99.90;;;;;;4999614;28;20050;-64
2021/08/02 05:11:28;;;;;;;12.60;3.70;;;18.90;99.90;;;;;;4989407;28;20048;-64
2021/08/02 05:14:32;;;;;;;11.52;3.45;;;19.10;99.90;;;;;;4992797;28;20400;-64
2021/08/02 05:17:38;;;;;;;15.98;3.40;;;19.30;99.90;;;;;;4993940;28;20041;-64
2021/08/02 05:20:43;;;;;;;14.20;3.42;;;19.50;99.90;;;;;;4994223;28;20049;-63
2021/08/02 05:23:47;;;;;;;12.93;4.10;;;19.80;99.90;;;;;;4993293;28;20610;-63
2021/08/02 05:26:51;;;;;;;13.30;4.22;;;19.70;99.90;;;;;;4994307;28;20065;-64
2021/08/02 05:29:55;;;;;;;14.63;4.55;;;19.70;99.90;;;;;;4994195;28;20057;-63
2021/08/02 05:33:00;;;;;;;17.55;4.00;;;19.80;99.90;;;;;;4992384;28;20618;-64
2021/08/02 05:36:05;;;;;;;17.88;3.67;;;20.00;99.90;;;;;;4991325;28;20029;-64
2021/08/02 05:39:09;;;;;;;15.15;4.32;;;20.00;99.90;;;;;;4993502;28;20049;-64
2021/08/02 05:42:15;;;;;;;12.20;4.22;;;20.00;99.90;;;;;;4994315;28;20049;-64
2021/08/02 05:45:19;;;;;;;20.02;5.07;;;20.00;99.90;;;;;;4994382;28;20037;-64
2021/08/02 05:48:23;;;;;;;11.38;4.03;;;20.00;99.90;;;;;;4993685;28;20056;-64
2021/08/02 05:51:28;;;;;;;14.57;3.50;;;20.10;99.90;;;;;;4994062;28;20057;-64
2021/08/02 05:54:32;;;;;;;25.80;5.18;;;20.30;99.90;;;;;;4994389;28;20045;-63
2021/08/02 05:57:37;;;;;;;16.00;4.30;;;21.10;99.90;;;;;;4993486;28;20041;-63
2021/08/02 06:00:41;;;;;;;14.35;3.92;;;21.10;99.90;;;;;;4988523;28;20411;-64
2021/08/02 06:03:46;;;;;;;14.35;4.10;;;21.40;99.90;;;;;;4993324;28;20384;-64
2021/08/02 06:06:53;;;;;;;15.30;4.22;;;21.70;99.90;;;;;;4974204;28;20046;-63
2021/08/02 06:09:57;;;;;;;20.70;4.32;;;21.40;99.90;;;;;;4974174;28;20053;-64
2021/08/02 06:13:02;;;;;;;11.82;4.13;;;21.10;99.90;;;;;;4991147;28;20041;-64
2021/08/02 06:16:07;;;;;;;15.02;3.85;;;21.20;99.90;;;;;;4994330;28;20065;-64
2021/08/02 06:19:11;;;;;;;12.15;4.20;;;21.40;99.90;;;;;;4989184;28;20041;-64
2021/08/02 06:22:14;;;;;;;13.93;3.97;;;21.80;99.90;;;;;;4989097;28;20388;-64
2021/08/02 06:25:18;;;;;;;16.30;4.45;;;22.50;99.90;;;;;;4986050;28;20053;-64
2021/08/02 06:28:23;;;;;;;13.65;3.95;;;22.50;99.90;;;;;;4993492;28;20380;-64
2021/08/02 06:31:27;;;;;;;20.73;4.80;;;22.20;99.90;;;;;;4975890;28;20042;-64
2021/08/02 06:34:31;;;;;;;17.30;4.25;;;22.10;99.90;;;;;;4974192;28;20377;-64
2021/08/02 06:37:40;;;;;;;21.75;5.25;;;21.80;99.90;;;;;;4985366;28;20432;-64
2021/08/02 06:40:45;;;;;;;17.95;4.85;;;21.70;99.90;;;;;;4989461;28;20062;-63
2021/08/02 06:43:49;;;;;;;17.73;4.75;;;21.40;99.90;;;;;;4983193;28;20049;-63
2021/08/02 06:46:54;;;;;;;26.85;6.32;;;21.50;99.90;;;;;;4990797;28;20053;-64
2021/08/02 06:49:59;;;;;;;26.17;5.22;;;20.80;99.90;;;;;;4991602;28;20057;-64
2021/08/02 06:53:02;;;;;;;21.35;4.65;;;20.80;99.90;;;;;;4990136;28;20045;-64
2021/08/02 06:56:07;;;;;;;16.83;4.38;;;21.90;99.90;;;;;;4991653;28;20053;-64
2021/08/02 06:59:11;;;;;;;16.08;3.60;;;24.20;99.90;;;;;;5001734;28;20698;-64
2021/08/02 07:02:15;;;;;;;14.32;3.85;;;25.70;99.90;;;;;;4990589;28;20038;-64
2021/08/02 07:05:21;;;;;;;15.25;4.13;;;25.30;99.90;;;;;;4992697;28;20049;-64
2021/08/02 07:08:25;;;;;;;15.07;3.80;;;24.90;99.90;;;;;;4999788;28;20037;-64
2021/08/02 07:11:29;;;;;;;10.40;3.25;;;26.40;99.90;;;;;;4990535;28;20037;-65
2021/08/02 07:14:33;;;;;;;14.00;3.80;;;28.40;99.00;;;;;;4986060;28;20046;-64
2021/08/02 07:17:38;;;;;;;16.30;3.60;;;27.60;97.80;;;;;;4992642;28;20045;-63
2021/08/02 07:20:42;;;;;;;8.15;2.80;;;28.20;97.70;;;;;;4990996;28;20057;-65
2021/08/02 07:23:47;;;;;;;13.80;3.25;;;30.10;96.20;;;;;;4987317;28;20515;-64
2021/08/02 07:26:51;;;;;;;11.32;3.22;;;29.00;95.70;;;;;;4998041;28;20409;-64
2021/08/02 07:29:55;;;;;;;14.20;3.33;;;29.20;95.10;;;;;;4986521;28;20045;-65
2021/08/02 07:33:00;;;;;;;11.13;3.50;;;29.00;95.40;;;;;;4982100;28;20057;-64
2021/08/02 07:36:05;;;;;;;9.30;2.90;;;28.90;95.00;;;;;;4984112;28;20738;-64
2021/08/02 07:39:09;;;;;;;12.07;3.03;;;28.70;95.20;;;;;;4982550;28;20045;-65
2021/08/02 07:42:13;;;;;;;9.55;3.60;;;29.80;94.30;;;;;;4983324;28;20404;-66
2021/08/02 07:45:17;;;;;;;13.98;3.50;;;30.20;93.40;;;;;;4987657;28;20053;-64
2021/08/02 07:48:23;;;;;;;13.13;3.08;;;31.20;92.80;;;;;;4988014;28;20061;-65
2021/08/02 07:51:28;;;;;;;8.90;3.20;;;32.20;91.70;;;;;;4986259;28;20184;-65
2021/08/02 07:54:32;;;;;;;9.18;2.58;;;31.90;90.60;;;;;;4992057;28;20038;-64
2021/08/02 07:57:36;;;;;;;13.80;3.40;;;33.80;88.90;;;;;;4984118;28;20038;-64
2021/08/02 08:00:41;;;;;;;8.52;3.45;;;32.90;86.30;;;;;;4985423;28;20430;-64
2021/08/02 08:03:45;;;;;;;5.90;2.00;;;35.00;84.80;;;;;;4983176;28;20042;-65
2021/08/02 08:06:49;;;;;;;8.32;1.95;;;37.20;77.10;;;;;;4983877;28;20037;-63
2021/08/02 08:09:53;;;;;;;9.18;1.65;;;38.70;71.10;;;;;;4981811;28;20054;-63
2021/08/02 08:12:57;;;;;;;5.68;1.58;;;38.50;69.20;;;;;;4983076;28;20054;-63
2021/08/02 08:16:03;;;;;;;6.85;2.28;;;37.50;68.70;;;;;;4988414;28;20042;-63
2021/08/02 08:19:07;;;;;;;7.00;2.38;;;36.90;71.80;;;;;;4983033;28;20516;-66
2021/08/02 08:22:11;;;;;;;7.95;2.20;;;37.30;71.70;;;;;;4994240;28;20050;-65
2021/08/02 08:25:16;;;;;;;6.10;2.60;;;37.70;69.10;;;;;;4981547;28;20045;-65
2021/08/02 08:28:20;;;;;;;7.60;1.65;;;35.50;72.30;;;;;;4987538;28;20050;-64
2021/08/02 08:31:24;;;;;;;5.70;1.70;;;37.90;67.70;;;;;;4986396;28;20034;-65
2021/08/02 08:34:28;;;;;;;7.93;1.75;;;38.40;65.00;;;;;;4985115;28;20042;-65
2021/08/02 08:37:33;;;;;;;2.55;1.38;;;34.80;67.30;;;;;;4986964;28;20049;-65
2021/08/02 08:40:38;;;;;;;7.68;1.83;;;34.80;69.60;;;;;;4984785;28;20050;-65
2021/08/02 08:43:42;;;;;;;5.78;1.60;;;34.30;69.60;;;;;;4996224;28;20045;-65
2021/08/02 08:46:46;;;;;;;5.63;1.48;;;36.20;67.20;;;;;;4984911;28;20038;-65
2021/08/02 08:49:50;;;;;;;4.70;1.55;;;37.50;66.20;;;;;;4981310;28;20035;-65
2021/08/02 08:52:57;;;;;;;6.22;1.85;;;36.80;65.50;;;;;;4986457;28;20064;-66
2021/08/02 08:56:01;;;;;;;8.73;2.30;;;35.30;67.30;;;;;;4974521;28;20031;-65
2021/08/02 08:59:13;;;;;;;5.13;1.70;;;35.30;66.70;;;;;;4983193;28;20122;-66
2021/08/02 09:02:26;;;;;;;5.45;1.42;;;37.40;66.70;;;;;;4985057;28;20572;-65
2021/08/02 09:05:34;;;;;;;4.53;1.27;;;36.70;66.00;;;;;;4976330;28;20597;-66
2021/08/02 09:08:43;;;;;;;8.23;1.83;;;37.40;66.50;;;;;;4990791;28;20496;-65
2021/08/02 09:11:47;;;;;;;9.73;1.70;;;38.70;64.50;;;;;;4986194;28;20050;-64
2021/08/02 09:15:02;;;;;;;4.78;1.40;;;40.50;64.00;;;;;;4984846;28;20035;-66
2021/08/02 09:18:14;;;;;;;7.75;1.85;;;40.10;62.80;;;;;;4990558;28;20496;-66
2021/08/02 09:21:19;;;;;;;7.18;1.42;;;39.50;63.50;;;;;;4973438;28;20054;-65
2021/08/02 09:24:35;;;;;;;7.75;1.67;;;39.20;63.00;;;;;;4988629;28;20042;-66
2021/08/02 09:27:41;;;;;;;7.22;1.85;;;38.60;64.40;;;;;;4986540;28;20047;-65
2021/08/02 09:31:03;;;;;;;7.13;1.73;;;32.70;69.00;;;;;;4983009;28;20038;-65
2021/08/02 09:34:09;;;;;;;7.32;2.28;;;31.50;72.80;;;;;;4981905;28;20039;-64
2021/08/02 09:37:21;;;;;;;9.20;2.45;;;31.20;73.70;;;;;;4981623;28;20489;-65
2021/08/02 09:40:25;;;;;;;6.22;1.75;;;31.90;72.70;;;;;;4981763;28;20393;-66
2021/08/02 09:43:31;;;;;;;3.92;1.70;;;32.90;71.20;;;;;;4983963;28;20054;-65
2021/08/02 09:46:37;;;;;;;5.72;1.77;;;34.70;69.60;;;;;;4982391;28;20053;-65
2021/08/02 09:49:47;;;;;;;7.85;1.80;;;34.70;69.00;;;;;;4979358;28;20046;-65
2021/08/02 09:52:52;;;;;;;7.20;2.78;;;35.70;68.60;;;;;;4981287;28;20038;-65
2021/08/02 09:55:57;;;;;;;7.80;1.85;;;35.20;68.70;;;;;;4984777;28;20046;-65
2021/08/02 09:59:03;;;;;;;8.95;2.15;;;34.10;70.70;;;;;;4980866;28;20038;-65
2021/08/02 10:02:08;;;;;;;6.45;2.35;;;33.10;72.40;;;;;;4989858;28;20662;-65
2021/08/02 10:05:17;;;;;;;9.13;2.55;;;32.50;73.60;;;;;;4989316;28;20045;-66
2021/08/02 10:08:22;;;;;;;8.45;2.17;;;34.80;71.60;;;;;;4987242;28;20058;-66
2021/08/02 10:11:26;;;;;;;10.50;2.08;;;34.30;70.60;;;;;;4988912;28;20404;-65
2021/08/02 10:14:33;;;;;;;5.75;1.90;;;33.20;71.80;;;;;;4986581;28;20041;-64
2021/08/02 10:17:38;;;;;;;5.65;1.90;;;32.40;73.40;;;;;;4988068;28;20038;-65
2021/08/02 10:23:07;;;;;;;6.65;1.92;;;35.90;70.50;;;;;;5100098;27;20195;-53
2021/08/02 10:26:29;;;;;;;5.65;1.77;;;39.50;66.60;;;;;;5100350;28;20486;-57
2021/08/02 10:29:41;;;;;;;6.65;1.58;;;42.40;62.40;;;;;;5087593;28;20502;-55
2021/08/02 10:32:55;;;;;;;6.18;2.13;;;43.00;61.60;;;;;;5083798;28;20487;-58
2021/08/02 10:36:14;;;;;;;7.03;1.80;;;43.30;61.30;;;;;;5082776;28;20379;-56
2021/08/02 10:39:23;;;;;;;5.72;1.52;;;42.90;59.20;;;;;;5078952;28;20041;-55
2021/08/02 10:42:28;;;;;;;3.88;1.50;;;42.60;59.00;;;;;;5082366;28;20367;-57
2021/08/02 10:45:34;;;;;;;4.70;1.63;;;42.00;58.50;;;;;;5083117;28;20482;-57
2021/08/02 10:48:38;;;;;;;5.40;1.38;;;42.70;57.80;;;;;;5067884;28;20438;-57
2021/08/02 10:51:50;;;;;;;5.55;1.75;;;43.20;56.70;;;;;;5078055;28;20383;-57
2021/08/02 10:54:56;;;;;;;5.38;1.60;;;44.00;57.00;;;;;;5084833;28;20040;-57
2021/08/02 10:58:00;;;;;;;5.22;1.42;;;43.60;55.60;;;;;;5080302;28;20040;-57
2021/08/02 11:01:13;;;;;;;8.00;1.88;;;39.40;57.20;;;;;;5082545;28;20036;-58
2021/08/02 11:04:18;;;;;;;5.47;1.70;;;38.90;58.30;;;;;;5082970;28;20482;-57
2021/08/02 11:07:23;;;;;;;5.93;1.88;;;35.80;60.50;;;;;;5080322;28;20037;-56
2021/08/02 11:10:28;;;;;;;7.75;1.77;;;33.10;63.00;;;;;;5076807;28;20441;-56
2021/08/02 11:13:32;;;;;;;7.57;1.80;;;31.90;64.80;;;;;;5081733;28;20391;-56
2021/08/02 11:16:41;;;;;;;5.45;1.30;;;32.10;66.20;;;;;;5081705;28;20036;-57
2021/08/02 11:19:46;;;;;;;4.80;1.40;;;33.80;62.90;;;;;;5084575;28;20025;-56
2021/08/02 11:22:55;;;;;;;3.70;1.60;;;33.20;63.30;;;;;;5082332;28;20040;-55
2021/08/02 11:26:11;;;;;;;4.30;1.42;;;31.20;67.00;;;;;;5083180;28;20036;-57
2021/08/02 11:29:18;;;;;;;3.90;1.60;;;33.30;64.50;;;;;;5083740;28;20033;-58
2021/08/02 11:32:23;;;;;;;3.45;1.35;;;36.30;61.50;;;;;;5083983;28;20176;-56
2021/08/02 11:35:35;;;;;;;6.85;1.67;;;37.30;59.30;;;;;;5070949;28;20048;-57
2021/08/02 11:38:40;;;;;;;5.63;1.65;;;36.00;61.40;;;;;;5073972;28;20552;-54
2021/08/02 11:41:46;;;;;;;11.70;1.60;;;36.40;60.90;;;;;;5067147;28;20041;-55
2021/08/02 11:44:54;;;;;;;4.18;1.67;;;35.20;61.70;;;;;;5066050;28;20044;-57
2021/08/02 11:48:02;;;;;;;3.35;1.35;;;34.60;62.30;;;;;;5060888;28;20041;-57
2021/08/02 11:51:07;;;;;;;2.97;1.38;;;34.20;62.80;;;;;;5068655;28;20029;-57
2021/08/02 11:54:23;;;;;;;5.18;1.50;;;33.70;64.00;;;;;;5065236;28;20045;-57
2021/08/02 11:57:28;;;;;;;4.63;1.10;;;33.20;62.60;;;;;;5065233;28;20041;-59
2021/08/02 12:00:32;;;;;;;3.80;1.30;;;32.90;61.00;;;;;;5068463;28;20032;-55
2021/08/02 12:03:38;;;;;;;2.42;0.90;;;31.90;61.20;;;;;;5062742;28;20036;-54
2021/08/02 12:06:55;;;;;;;3.00;1.40;;;31.10;60.90;;;;;;5056162;28;20041;-58
2021/08/02 12:10:15;;;;;;;2.97;1.10;;;31.70;61.10;;;;;;5058102;28;20383;-58
2021/08/02 12:13:20;;;;;;;3.35;1.00;;;33.10;60.60;;;;;;5069924;28;20048;-57
2021/08/02 12:16:27;;;;;;;3.38;1.20;;;34.70;58.80;;;;;;5070439;28;20036;-58
2021/08/02 12:19:47;;;;;;;3.83;1.38;;;32.30;60.40;;;;;;5061427;28;20036;-57
2021/08/02 12:22:51;;;;;;;2.97;1.10;;;32.20;63.10;;;;;;5066891;28;20041;-59
2021/08/02 12:25:56;;;;;;;7.95;1.30;;;34.00;61.00;;;;;;5070926;28;20033;-58
2021/08/02 12:29:00;;;;;;;6.35;1.10;;;33.90;60.70;;;;;;5068592;28;20036;-59
2021/08/02 12:32:05;;;;;;;2.78;1.20;;;33.70;61.20;;;;;;5058561;28;20036;-59
2021/08/02 12:35:12;;;;;;;8.70;1.25;;;33.10;61.40;;;;;;5066613;28;20041;-56
2021/08/02 12:38:17;;;;;;;4.22;1.23;;;32.50;61.60;;;;;;5067861;28;20040;-58
2021/08/02 12:41:22;;;;;;;6.90;1.13;;;31.60;63.70;;;;;;5062956;28;20036;-58
2021/08/02 12:44:26;;;;;;;4.00;1.20;;;32.40;62.50;;;;;;5064746;28;20036;-58
2021/08/02 12:47:31;;;;;;;5.63;0.98;;;33.10;60.40;;;;;;5068758;28;20028;-56
2021/08/02 12:50:35;;;;;;;3.38;1.10;;;33.40;61.20;;;;;;5058349;28;20033;-59
2021/08/02 12:53:40;;;;;;;3.15;1.15;;;33.40;60.60;;;;;;5066403;28;20033;-58
2021/08/02 12:56:44;;;;;;;8.23;2.05;;;33.70;60.30;;;;;;5066642;28;20048;-58
2021/08/02 12:59:50;;;;;;;8.43;0.90;;;33.90;59.70;;;;;;5059318;28;20045;-58
2021/08/02 13:02:55;;;;;;;4.30;0.98;;;32.40;60.20;;;;;;5056977;28;20411;-58
2021/08/02 13:05:59;;;;;;;5.75;0.90;;;32.10;60.30;;;;;;5057931;28;20041;-57
2021/08/02 13:09:03;;;;;;;1.35;0.70;;;31.90;60.10;;;;;;5063684;28;20326;-58
2021/08/02 13:12:09;;;;;;;2.92;0.98;;;31.30;60.50;;;;;;5059821;28;20037;-58
2021/08/02 13:15:13;;;;;;;2.35;1.00;;;30.60;61.50;;;;;;5057618;28;20041;-58
2021/08/02 13:18:18;;;;;;;2.55;0.90;;;30.20;61.00;;;;;;5062856;28;20063;-57
2021/08/02 13:21:23;;;;;;;2.83;1.08;;;29.70;62.90;;;;;;5059710;28;20047;-59
2021/08/02 13:27:53;;;;;;;3.35;1.08;;;29.30;61.50;;;;;;5059919;28;20036;-57
2021/08/02 13:30:59;;;;;;;3.30;0.93;;;29.30;62.90;;;;;;5059565;28;20047;-58
2021/08/02 13:34:04;;;;;;;3.47;1.10;;;29.90;60.20;;;;;;5056593;28;20540;-58
2021/08/02 13:37:09;;;;;;;3.88;0.90;;;29.50;59.70;;;;;;5056974;28;20049;-57
2021/08/02 13:40:13;;;;;;;1.30;0.57;;;29.00;59.70;;;;;;5063351;28;20045;-57
2021/08/02 13:43:18;;;;;;;3.83;1.10;;;28.80;59.70;;;;;;5056472;28;20041;-57
2021/08/02 13:46:24;;;;;;;4.28;1.00;;;29.00;60.20;;;;;;5050713;28;20033;-57
2021/08/02 13:49:28;;;;;;;2.72;1.00;;;28.80;60.90;;;;;;5052554;28;20056;-56
2021/08/02 13:52:32;;;;;;;10.13;1.38;;;29.20;59.70;;;;;;5053853;28;20115;-57
2021/08/02 13:55:37;;;;;;;6.57;1.35;;;29.20;60.90;;;;;;5058215;28;20040;-57
2021/08/02 13:58:42;;;;;;;2.45;0.88;;;30.10;59.70;;;;;;5061640;28;20040;-58
2021/08/02 14:01:46;;;;;;;4.97;1.23;;;29.10;59.80;;;;;;5065688;28;20612;-58
2021/08/02 14:04:50;;;;;;;3.67;0.80;;;28.90;60.60;;;;;;5058049;28;20040;-57
2021/08/02 14:07:55;;;;;;;3.90;1.02;;;29.70;60.60;;;;;;5062916;28;20047;-58
2021/08/02 14:11:03;;;;;;;2.30;0.82;;;29.40;60.50;;;;;;5067358;28;20045;-58
2021/08/02 14:14:07;;;;;;;8.80;0.93;;;30.20;60.00;;;;;;5056131;28;20048;-58
2021/08/02 14:17:19;;;;;;;4.75;1.10;;;30.40;60.70;;;;;;5067938;28;20029;-56
2021/08/02 14:20:24;;;;;;;2.25;0.90;;;30.60;59.90;;;;;;5068048;28;20060;-58
2021/08/02 14:23:28;;;;;;;3.63;1.00;;;30.00;59.80;;;;;;5064573;28;20040;-58
2021/08/02 14:26:34;;;;;;;2.85;1.02;;;29.10;60.00;;;;;;5067437;28;20036;-58
2021/08/02 14:29:40;;;;;;;24.83;1.95;;;28.90;61.30;;;;;;5067415;28;20035;-54
2021/08/02 14:32:46;;;;;;;5.03;1.13;;;29.70;60.80;;;;;;5068409;28;20067;-58
2021/08/02 14:35:53;;;;;;;3.35;1.35;;;29.60;60.00;;;;;;5068787;28;20040;-58
2021/08/02 14:39:05;;;;;;;3.83;1.25;;;30.00;60.30;;;;;;5058102;28;20037;-58
2021/08/02 14:42:14;;;;;;;4.00;1.65;;;28.60;60.40;;;;;;5052151;22;20053;-47
2021/08/02 14:45:19;;;;;;;2.90;1.05;;;28.40;60.10;;;;;;4991599;28;20061;-47
2021/08/02 14:48:25;;;;;;;7.90;1.45;;;28.50;60.40;;;;;;5004707;28;20145;-49
2021/08/02 14:51:30;;;;;;;3.85;1.00;;;28.80;61.60;;;;;;5004918;28;20041;-49
2021/08/02 14:54:35;;;;;;;5.35;1.20;;;29.30;61.00;;;;;;4989481;28;20049;-47
2021/08/02 14:57:42;;;;;;;4.88;1.20;;;29.40;61.30;;;;;;4992640;28;20362;-47
2021/08/02 15:00:47;;;;;;;5.07;1.10;;;29.70;61.70;;;;;;5000392;28;20508;-49
2021/08/02 15:03:53;;;;;;;7.20;1.73;;;29.30;61.20;;;;;;4986452;28;20049;-47
2021/08/02 15:07:01;;;;;;;3.85;1.27;;;29.80;61.50;;;;;;4983205;28;20053;-50
2021/08/02 15:10:06;;;;;;;5.25;1.77;;;30.00;62.20;;;;;;5001143;28;20510;-48
2021/08/02 15:13:11;;;;;;;6.15;1.45;;;29.80;62.00;;;;;;4988797;28;20042;-49
2021/08/02 15:16:20;;;;;;;4.53;1.40;;;29.60;61.00;;;;;;4973129;28;20524;-47
2021/08/02 15:19:29;;;;;;;2.72;0.90;;;29.60;62.20;;;;;;5002007;28;20035;-47
2021/08/02 15:23:04;;;;;;;3.13;0.88;;;29.10;61.40;;;;;;4996355;28;20221;-52
2021/08/02 15:26:10;;;;;;;4.63;1.15;;;29.00;61.40;;;;;;4979658;28;20037;-50
2021/08/02 15:29:17;;;;;;;5.32;1.48;;;28.50;61.70;;;;;;4989876;28;20037;-49
2021/08/02 15:32:22;;;;;;;5.00;1.15;;;28.20;62.50;;;;;;5003407;28;20048;-48
2021/08/02 15:35:27;;;;;;;5.30;1.10;;;28.20;62.40;;;;;;4994894;28;20069;-47
2021/08/02 15:38:33;;;;;;;4.50;1.08;;;28.00;62.40;;;;;;4982671;28;20515;-49
2021/08/02 15:41:38;;;;;;;4.18;1.00;;;28.10;62.80;;;;;;5000185;28;20212;-47
2021/08/02 15:44:43;;;;;;;4.50;1.48;;;28.00;61.90;;;;;;4996640;28;20026;-47
2021/08/02 15:47:51;;;;;;;5.70;1.20;;;28.20;62.70;;;;;;4994766;28;20037;-48
2021/08/02 15:50:56;;;;;;;5.05;1.35;;;28.20;63.30;;;;;;5009701;28;20038;-48
2021/08/02 15:54:02;;;;;;;3.63;1.17;;;27.90;63.50;;;;;;4999241;28;20042;-48
2021/08/02 15:57:08;;;;;;;3.83;0.95;;;27.60;63.90;;;;;;4982483;28;20045;-47
2021/08/02 16:00:14;;;;;;;3.60;0.98;;;27.60;65.20;;;;;;5000566;28;20057;-49
2021/08/02 16:03:38;;;;;;;3.30;1.10;;;28.00;64.10;;;;;;4996293;28;20543;-47
2021/08/02 16:06:53;;;;;;;7.40;1.25;;;28.30;64.50;;;;;;4993407;28;20045;-49
2021/08/02 16:10:06;;;;;;;5.22;1.00;;;27.90;64.10;;;;;;4994389;28;20034;-47
2021/08/02 16:13:10;;;;;;;6.10;1.48;;;28.00;64.80;;;;;;5004626;28;20057;-49